Terminal Aerodrome Forecast
Issued by NWS

Home | Current Version | Previous Version | Text Only | Print | Product List | Glossary On
Versions: 1 2 3 4 5 6 7 8 9 10 11 12 13 14 15 16 17 18 19 20 21 22 23 24 25 26 27 28 29 30 31 32 33 34 35 36 37 38 39 40 41 42 43 44 45 46 47
000
FTUS42 KGSP 232300
TAFHKY
TAF
KHKY 232322Z 2400/2424 VRB05KT P6SM VCSH SCT040 BKN150
     FM240200 24004KT P6SM BKN070
     FM240700 28003KT 4SM BR SCT010 BKN060
     FM241300 26004KT P6SM VCSH BKN050
     FM241700 26005KT P6SM -SHRA VCTS BKN045CB PROB30 2418/2422 4SM
      TSRA BKN035CB=

USA.gov is the U.S. government's official web portal to all federal, state and local government web resources and services.